Terminal Aerodrome Forecast
Issued by NWS

Home | Current Version | Previous Version | Text Only | Print | Product List | Glossary On
Versions: 1 2 3 4 5 6 7 8 9 10 11 12 13 14 15 16 17 18 19 20 21 22 23 24 25 26 27 28 29 30 31 32 33 34
918
FTUS41 KOKX 040526
TAFTEB
TAF
KTEB 040526Z 0406/0506 VRB03KT 4SM BR OVC008
     FM041500 09010KT 4SM -SHRA BR SCT008 OVC012
     FM042300 06010KT 4SM -DZ BR BKN008=

USA.gov is the U.S. government's official web portal to all federal, state and local government web resources and services.